Saint-Elie-D'Orford, Canada
Current Conditions -  °F | °C
As of 10:00 AM on Friday 19 Dec 2014 (Local Time) from CYSC Reporting Station
Light Snow Light Snow  
Wind Chill: 10°   Ceiling: 1200
Heat Index: 21°   Visibility: 9mi
Dew Point: 19°   Wind: 10mph
Humidity: 93%   Direction: 280°W
Pressure: 30"   Gusts: NA
Location:  45.4°N, 72.03°W
Report Text: CYSC 191500Z AUTO 28009KT 9SM -SN OVC012 M06/M07 A3000 RMK SLP172
Loading
Personal Weather Stations






























Interactive Weather Map New forecast layout! Learn more

10-Day Weather Forecast

Advertisements
Track Severe Weather on mobile